DRRT

Tahoua Airport

Tahoua, Niger
METAR DRRT 151300Z 10018KT 8000 NSC 32/M02 Q1012
Observed Flight Rules
Dec-15 @ 13:00 UTC (50 minutes ago) Marginal Visual Flight Rules
Wind Visibility Clouds
100° at 18 knots 7,998 meters
  • Clear skies
Temperatures Readings
Current 32°C / 90°F
Dewpoint -2°C / 28°F
Humidity 11%
Altimeter 29.88" Hg
Pressure 1012 hPa
Elevation 391
METAR DRRT 151300Z 10018KT 8000 NSC 32/M02 Q1012
Observed Flight Rules
Dec-15 @ 13:00 UTC
(50 minutes ago)
MVFR
Wind Visibility
100° at 18 knots 7,998 meters
Clouds
  • Clear skies
Temperature Dewpoint
32°C / 90°F -2°C / 28°F
Humidity Altimeter Pressure
11% 29.88" Hg 1012 hPa